createdAt,value
2023-01-17T00:02:20.818Z,88.12
2023-01-17T00:05:06.786Z,88.11
2023-01-17T00:07:52.969Z,88.37
2023-01-17T00:10:24.724Z,88.58
2023-01-17T00:13:00.010Z,88.91
2023-01-17T00:15:30.897Z,88.99
2023-01-17T00:17:58.476Z,88.99
2023-01-17T00:20:47.144Z,88.85
2023-01-17T00:23:37.935Z,88.53
2023-01-17T00:26:06.692Z,88.57
2023-01-17T00:28:40.158Z,88.80
2023-01-17T00:31:08.810Z,89.01
2023-01-17T00:33:36.062Z,89.07
2023-01-17T00:36:03.749Z,89.07
2023-01-17T00:38:32.548Z,89.36
2023-01-17T00:41:13.573Z,89.45
2023-01-17T00:43:59.634Z,89.35
2023-01-17T00:46:45.712Z,88.87
2023-01-17T00:49:31.508Z,88.85
2023-01-17T00:52:17.361Z,88.61
2023-01-17T00:55:03.178Z,88.68
2023-01-17T00:57:48.998Z,88.59
2023-01-17T01:00:37.531Z,88.50
2023-01-17T01:03:28.037Z,88.64
2023-01-17T01:06:13.727Z,88.46
2023-01-17T01:08:59.890Z,88.63
2023-01-17T01:11:45.591Z,88.56
2023-01-17T01:14:31.730Z,88.36
2023-01-17T01:17:17.663Z,88.29
2023-01-17T01:20:03.717Z,88.01
2023-01-17T01:22:49.283Z,87.92
2023-01-17T01:25:35.363Z,87.78
2023-01-17T01:28:31.274Z,87.85
2023-01-17T01:31:21.544Z,88.08
2023-01-17T01:33:50.247Z,88.27
2023-01-17T01:36:17.497Z,87.95
2023-01-17T01:38:45.926Z,87.95
2023-01-17T01:41:13.209Z,87.97
2023-01-17T01:43:54.020Z,87.63
2023-01-17T01:46:30.537Z,86.97
2023-01-17T01:49:28.731Z,86.84
2023-01-17T01:51:59.962Z,86.81
2023-01-17T01:54:30.770Z,87.06
2023-01-17T01:56:59.044Z,87.66
2023-01-17T01:59:26.535Z,87.67
2023-01-17T02:01:55.712Z,88.16
2023-01-17T02:04:22.996Z,88.05
2023-01-17T02:06:53.149Z,88.09
2023-01-17T02:09:20.464Z,88.22
2023-01-17T02:11:47.799Z,88.31
2023-01-17T02:14:19.133Z,87.74
2023-01-17T02:17:05.588Z,87.71
2023-01-17T02:20:10.237Z,87.71
2023-01-17T02:22:56.070Z,87.78
2023-01-17T02:25:44.741Z,88.00
2023-01-17T02:28:27.045Z,87.87
2023-01-17T02:31:23.757Z,88.42
2023-01-17T02:33:59.086Z,88.25
2023-01-17T02:36:39.630Z,88.24
2023-01-17T02:39:15.764Z,88.60
2023-01-17T02:41:45.017Z,89.09
2023-01-17T02:44:16.316Z,89.52
2023-01-17T02:46:47.142Z,89.64
2023-01-17T02:49:15.460Z,89.82
2023-01-17T02:52:01.440Z,89.81
2023-01-17T02:54:49.841Z,89.50
2023-01-17T02:57:45.111Z,89.06
2023-01-17T03:00:44.963Z,88.50
2023-01-17T03:03:52.988Z,88.24
2023-01-17T03:06:23.925Z,87.95
2023-01-17T03:08:51.417Z,88.41
2023-01-17T03:11:18.857Z,88.60
2023-01-17T03:13:46.200Z,88.54
2023-01-17T03:16:21.407Z,88.74
2023-01-17T03:18:49.438Z,88.68
2023-01-17T03:21:16.866Z,88.75
2023-01-17T03:23:44.406Z,88.70
2023-01-17T03:26:11.720Z,88.56
2023-01-17T03:28:39.088Z,88.30
2023-01-17T03:31:06.511Z,88.64
2023-01-17T03:33:33.912Z,88.67
2023-01-17T03:36:01.219Z,88.36
2023-01-17T03:38:28.797Z,88.12
2023-01-17T03:40:56.063Z,88.51
2023-01-17T03:43:23.416Z,88.38
2023-01-17T03:45:52.226Z,88.25
2023-01-17T03:48:19.723Z,88.19
2023-01-17T03:50:50.834Z,88.19
2023-01-17T03:53:18.195Z,88.37
2023-01-17T03:55:46.201Z,88.25
2023-01-17T03:58:13.528Z,88.28
2023-01-17T04:00:40.827Z,88.18
2023-01-17T04:03:08.173Z,88.28
2023-01-17T04:05:35.424Z,88.28
2023-01-17T04:08:03.291Z,88.42
2023-01-17T04:10:30.550Z,88.42
2023-01-17T04:12:57.895Z,88.21
2023-01-17T04:15:25.183Z,87.74
2023-01-17T04:17:52.651Z,87.65
2023-01-17T04:20:32.524Z,87.56
2023-01-17T04:22:59.837Z,87.30
2023-01-17T04:25:27.538Z,87.33
2023-01-17T04:27:54.904Z,87.24
2023-01-17T04:30:22.193Z,86.92
2023-01-17T04:32:49.601Z,87.14
2023-01-17T04:35:17.056Z,87.07
2023-01-17T04:37:44.452Z,87.10
2023-01-17T04:40:12.179Z,87.17
2023-01-17T04:42:39.889Z,86.96
2023-01-17T04:45:07.883Z,87.04
2023-01-17T04:47:35.209Z,87.51
2023-01-17T04:50:02.569Z,87.37
2023-01-17T04:52:29.975Z,87.83
2023-01-17T04:54:57.215Z,88.07
2023-01-17T04:57:25.342Z,87.74
2023-01-17T04:59:53.755Z,87.51
2023-01-17T05:02:21.153Z,87.40
2023-01-17T05:04:48.461Z,87.29
2023-01-17T05:07:15.871Z,87.39
2023-01-17T05:09:43.947Z,87.36
2023-01-17T05:12:11.360Z,87.58
2023-01-17T05:14:38.652Z,87.78
2023-01-17T05:17:06.006Z,87.83
2023-01-17T05:19:33.405Z,87.42
2023-01-17T05:22:04.286Z,87.28
2023-01-17T05:24:32.377Z,87.20
2023-01-17T05:27:03.940Z,87.01
2023-01-17T05:29:31.285Z,87.11
2023-01-17T05:31:58.543Z,87.30
2023-01-17T05:34:25.956Z,87.08
2023-01-17T05:36:53.293Z,86.95
2023-01-17T05:39:20.610Z,87.07
2023-01-17T05:41:47.926Z,87.48
2023-01-17T05:44:18.333Z,86.87
2023-01-17T05:46:45.690Z,86.63
2023-01-17T05:49:13.056Z,86.62
2023-01-17T05:51:40.611Z,86.96
2023-01-17T05:54:13.654Z,86.83
2023-01-17T05:56:42.150Z,87.18
2023-01-17T05:59:14.165Z,87.41
2023-01-17T06:01:41.770Z,87.62
2023-01-17T06:04:09.105Z,87.28
2023-01-17T06:06:36.442Z,87.48
2023-01-17T06:09:03.850Z,87.43
2023-01-17T06:11:31.281Z,87.20
2023-01-17T06:13:58.547Z,87.68
2023-01-17T06:16:25.928Z,87.92
2023-01-17T06:18:53.299Z,87.74
2023-01-17T06:21:20.943Z,87.65
2023-01-17T06:23:48.312Z,87.61
2023-01-17T06:26:16.361Z,88.00
2023-01-17T06:28:43.769Z,87.69
2023-01-17T06:31:22.279Z,88.00
2023-01-17T06:34:14.309Z,88.08
2023-01-17T06:36:41.978Z,88.34
2023-01-17T06:39:10.977Z,88.62
2023-01-17T06:41:38.422Z,88.68
2023-01-17T06:44:07.680Z,88.42
2023-01-17T06:46:35.608Z,88.46
2023-01-17T06:49:03.661Z,88.50
2023-01-17T06:51:34.311Z,88.44
2023-01-17T06:54:01.722Z,88.28
2023-01-17T06:56:32.288Z,88.39
2023-01-17T06:59:00.452Z,88.63
2023-01-17T07:01:28.279Z,88.50
2023-01-17T07:03:56.194Z,88.42
2023-01-17T07:06:29.072Z,88.42
2023-01-17T07:08:56.790Z,87.90
2023-01-17T07:11:24.475Z,87.98
2023-01-17T07:13:51.911Z,87.02
2023-01-17T07:16:19.460Z,86.39
2023-01-17T07:18:47.461Z,85.77
2023-01-17T07:21:15.382Z,84.66
2023-01-17T07:23:45.814Z,83.61
2023-01-17T07:26:14.244Z,83.43
2023-01-17T07:28:41.981Z,82.26
2023-01-17T07:31:09.463Z,81.42
2023-01-17T07:33:36.937Z,81.67
2023-01-17T07:36:07.722Z,81.88
2023-01-17T07:38:35.448Z,81.71
2023-01-17T07:41:03.101Z,79.07
2023-01-17T07:43:30.548Z,76.06
2023-01-17T07:46:01.290Z,74.80
2023-01-17T07:48:30.550Z,73.50
2023-01-17T07:50:58.412Z,73.50
2023-01-17T07:53:26.983Z,78.80
2023-01-17T07:55:54.457Z,81.31
2023-01-17T07:58:21.864Z,83.09
2023-01-17T08:00:49.410Z,83.24
2023-01-17T08:03:18.057Z,84.13
2023-01-17T08:05:53.790Z,85.74
2023-01-17T08:08:21.420Z,85.68
2023-01-17T08:10:49.634Z,86.76
2023-01-17T08:13:17.585Z,87.09
2023-01-17T08:15:44.894Z,87.00
2023-01-17T08:18:21.161Z,87.03
2023-01-17T08:20:48.830Z,86.60
2023-01-17T08:23:16.353Z,86.11
2023-01-17T08:25:44.456Z,86.19
2023-01-17T08:28:16.063Z,86.22
2023-01-17T08:30:43.724Z,86.53
2023-01-17T08:33:11.690Z,86.32
2023-01-17T08:35:53.435Z,86.46
2023-01-17T08:38:23.940Z,86.46
2023-01-17T08:40:52.329Z,85.93
2023-01-17T08:43:19.896Z,86.05
2023-01-17T08:45:48.461Z,85.45
2023-01-17T08:48:18.201Z,85.93
2023-01-17T08:50:46.428Z,85.76
2023-01-17T08:53:14.152Z,85.67
2023-01-17T08:55:41.804Z,85.52
2023-01-17T08:58:12.402Z,85.31
2023-01-17T09:00:43.376Z,85.13
2023-01-17T09:03:14.655Z,84.79
2023-01-17T09:05:47.428Z,84.74
2023-01-17T09:08:18.127Z,84.41
2023-01-17T09:10:46.465Z,83.81
2023-01-17T09:13:14.209Z,84.11
2023-01-17T09:15:41.542Z,84.17
2023-01-17T09:18:09.000Z,83.86
2023-01-17T09:20:36.637Z,83.09
2023-01-17T09:23:04.477Z,83.32
2023-01-17T09:25:31.812Z,82.98
2023-01-17T09:27:59.915Z,82.82
2023-01-17T09:30:27.401Z,83.17
2023-01-17T09:33:00.895Z,83.67
2023-01-17T09:35:29.192Z,83.68
2023-01-17T09:37:57.328Z,83.08
2023-01-17T09:40:25.142Z,83.37
2023-01-17T09:42:54.813Z,82.50
2023-01-17T09:45:43.979Z,81.11
2023-01-17T09:48:14.623Z,81.44
2023-01-17T09:50:53.155Z,80.53
2023-01-17T09:53:21.606Z,80.20
2023-01-17T09:55:58.005Z,80.84
2023-01-17T09:58:42.743Z,80.42
2023-01-17T10:01:23.577Z,80.69
2023-01-17T10:04:33.437Z,80.74
2023-01-17T10:07:12.147Z,80.35
2023-01-17T10:09:55.098Z,79.82
2023-01-17T10:12:40.842Z,79.86
2023-01-17T10:15:27.760Z,80.28
2023-01-17T10:18:29.269Z,79.93
2023-01-17T10:21:27.591Z,80.23
2023-01-17T10:24:20.343Z,79.91
2023-01-17T10:26:50.193Z,80.09
2023-01-17T10:29:21.016Z,80.41
2023-01-17T10:31:56.144Z,78.70
2023-01-17T10:34:32.128Z,78.42
2023-01-17T10:37:11.519Z,78.03
2023-01-17T10:39:39.549Z,78.58
2023-01-17T10:42:31.189Z,78.40
2023-01-17T10:45:06.460Z,78.15
2023-01-17T10:47:36.950Z,78.07
2023-01-17T10:50:05.479Z,78.06
2023-01-17T10:53:03.093Z,78.28
2023-01-17T10:55:45.710Z,79.25
2023-01-17T10:58:25.158Z,79.80
2023-01-17T11:00:57.856Z,80.08
2023-01-17T11:03:59.678Z,79.24
2023-01-17T11:07:26.973Z,80.12
2023-01-17T11:09:58.607Z,79.96
2023-01-17T11:12:45.999Z,80.91
2023-01-17T11:15:18.053Z,81.73
2023-01-17T11:18:06.049Z,81.28
2023-01-17T11:20:38.654Z,81.06
2023-01-17T11:23:25.519Z,80.67
2023-01-17T11:26:02.822Z,80.88
2023-01-17T11:28:39.790Z,80.53
2023-01-17T11:31:28.652Z,80.24
2023-01-17T11:34:19.166Z,80.53
2023-01-17T11:36:46.951Z,81.12
2023-01-17T11:39:17.377Z,81.56
2023-01-17T11:41:46.418Z,80.88
2023-01-17T11:44:34.229Z,80.14
2023-01-17T11:47:14.349Z,80.18
2023-01-17T11:49:46.075Z,80.62
2023-01-17T11:52:40.120Z,79.95
2023-01-17T11:55:26.287Z,80.21
2023-01-17T11:57:56.458Z,80.03
2023-01-17T12:00:41.807Z,80.85
2023-01-17T12:03:30.901Z,80.85
2023-01-17T12:06:22.297Z,81.79
2023-01-17T12:09:02.149Z,81.99
2023-01-17T12:11:37.658Z,82.16
2023-01-17T12:14:32.168Z,81.29
2023-01-17T12:17:11.752Z,81.16
2023-01-17T12:19:55.012Z,81.28
2023-01-17T12:22:40.788Z,81.92
2023-01-17T12:25:28.611Z,83.20
2023-01-17T12:28:10.549Z,81.82
2023-01-17T12:30:51.241Z,83.61
2023-01-17T12:33:31.331Z,85.35
2023-01-17T12:36:05.549Z,83.11
2023-01-17T12:38:38.526Z,81.77
2023-01-17T12:41:10.458Z,82.37
2023-01-17T12:43:40.477Z,82.72
2023-01-17T12:46:14.992Z,82.69
2023-01-17T12:48:43.169Z,82.42
2023-01-17T12:51:17.637Z,82.31
2023-01-17T12:54:20.452Z,82.26
2023-01-17T12:56:51.809Z,82.87
2023-01-17T12:59:35.783Z,82.30
2023-01-17T13:02:11.088Z,82.18
2023-01-17T13:04:58.836Z,82.16
2023-01-17T13:07:36.586Z,81.48
2023-01-17T13:10:35.553Z,80.59
2023-01-17T13:13:26.915Z,79.33
2023-01-17T13:16:17.761Z,79.63
2023-01-17T13:18:49.194Z,78.30
2023-01-17T13:21:32.695Z,78.19
2023-01-17T13:24:02.242Z,79.64
2023-01-17T13:26:48.926Z,78.47
2023-01-17T13:29:50.952Z,78.24
2023-01-17T13:32:46.335Z,79.00
2023-01-17T13:35:45.190Z,79.04
2023-01-17T13:38:34.814Z,77.64
2023-01-17T13:41:04.780Z,78.48
2023-01-17T13:43:38.034Z,79.22
2023-01-17T13:46:05.628Z,78.50
2023-01-17T13:48:41.144Z,78.63
2023-01-17T13:51:09.250Z,79.11
2023-01-17T13:53:39.350Z,79.33
2023-01-17T13:56:09.684Z,79.46
2023-01-17T13:58:50.507Z,79.20
2023-01-17T14:01:24.533Z,78.99
2023-01-17T14:03:52.217Z,79.43
2023-01-17T14:06:38.484Z,78.96
2023-01-17T14:09:11.971Z,79.35
2023-01-17T14:11:59.167Z,80.05
2023-01-17T14:14:42.045Z,79.89
2023-01-17T14:17:26.143Z,79.72
2023-01-17T14:20:06.225Z,79.36
2023-01-17T14:22:35.958Z,80.13
2023-01-17T14:25:10.056Z,79.88
2023-01-17T14:27:43.403Z,80.26
2023-01-17T14:30:17.701Z,79.82
2023-01-17T14:33:18.928Z,79.99
2023-01-17T14:35:56.255Z,80.15
2023-01-17T14:38:24.544Z,80.74
2023-01-17T14:41:06.872Z,80.93
2023-01-17T14:43:35.746Z,81.12
2023-01-17T14:46:07.208Z,81.67
2023-01-17T14:48:34.767Z,81.69
2023-01-17T14:51:02.194Z,82.23
2023-01-17T14:53:30.784Z,81.82
2023-01-17T14:56:22.206Z,82.51
2023-01-17T14:59:21.279Z,82.65
2023-01-17T15:02:07.144Z,82.76
2023-01-17T15:04:39.895Z,82.86
2023-01-17T15:07:07.798Z,82.02
2023-01-17T15:09:35.964Z,82.14
2023-01-17T15:12:04.430Z,82.34
2023-01-17T15:14:33.685Z,82.22
2023-01-17T15:17:10.821Z,83.21
2023-01-17T15:19:44.872Z,83.96
2023-01-17T15:22:12.205Z,83.22
2023-01-17T15:24:44.634Z,83.88
2023-01-17T15:27:14.755Z,84.53
2023-01-17T15:29:42.114Z,84.13
2023-01-17T15:32:18.488Z,84.34
2023-01-17T15:34:47.105Z,84.53
2023-01-17T15:37:31.189Z,84.04
2023-01-17T15:40:18.729Z,83.98
2023-01-17T15:42:53.851Z,83.99
2023-01-17T15:45:24.278Z,84.16
2023-01-17T15:47:51.576Z,83.96
2023-01-17T15:50:23.847Z,84.64
2023-01-17T15:52:52.694Z,85.02
2023-01-17T15:55:24.695Z,84.74
2023-01-17T15:57:52.309Z,84.91
2023-01-17T16:00:21.192Z,85.67
2023-01-17T16:02:55.243Z,85.92
2023-01-17T16:05:27.614Z,85.78
2023-01-17T16:08:16.385Z,86.02
2023-01-17T16:10:44.158Z,85.79
2023-01-17T16:13:12.900Z,85.92
2023-01-17T16:15:43.348Z,86.12
2023-01-17T16:18:16.600Z,86.63
2023-01-17T16:20:48.896Z,86.74
2023-01-17T16:23:17.279Z,86.44
2023-01-17T16:25:45.958Z,86.39
2023-01-17T16:28:13.667Z,86.30
2023-01-17T16:30:41.064Z,86.45
2023-01-17T16:33:10.203Z,86.74
2023-01-17T16:35:37.757Z,86.63
2023-01-17T16:38:10.497Z,87.07
2023-01-17T16:40:44.006Z,87.43
2023-01-17T16:43:14.615Z,87.54
2023-01-17T16:45:49.143Z,88.11
2023-01-17T16:48:19.044Z,88.58
2023-01-17T16:50:49.812Z,88.41
2023-01-17T16:53:25.078Z,88.64
2023-01-17T16:55:56.380Z,88.51
2023-01-17T16:58:24.039Z,88.90
2023-01-17T17:00:51.566Z,88.48
2023-01-17T17:03:20.230Z,87.33
2023-01-17T17:05:55.191Z,86.36
2023-01-17T17:08:22.708Z,86.12
2023-01-17T17:10:50.133Z,86.38
2023-01-17T17:13:17.492Z,87.21
2023-01-17T17:15:45.005Z,87.62
2023-01-17T17:18:16.608Z,87.57
2023-01-17T17:20:44.281Z,87.35
2023-01-17T17:23:11.575Z,87.51
2023-01-17T17:25:39.043Z,87.35
2023-01-17T17:28:06.545Z,87.33
2023-01-17T17:30:34.642Z,87.42
2023-01-17T17:33:04.767Z,87.51
2023-01-17T17:35:35.294Z,87.97
2023-01-17T17:38:02.610Z,87.94
2023-01-17T17:40:29.907Z,87.41
2023-01-17T17:42:57.373Z,87.52
2023-01-17T17:45:24.734Z,87.40
2023-01-17T17:47:52.240Z,87.50
2023-01-17T17:50:19.707Z,87.56
2023-01-17T17:52:48.245Z,87.48
2023-01-17T17:55:19.114Z,87.96
2023-01-17T17:57:46.441Z,88.14
2023-01-17T18:00:14.099Z,88.32
2023-01-17T18:02:41.548Z,88.17
2023-01-17T18:05:09.286Z,87.51
2023-01-17T18:07:36.677Z,87.87
2023-01-17T18:10:04.388Z,87.86
2023-01-17T18:12:31.741Z,87.85
2023-01-17T18:14:59.030Z,87.52
2023-01-17T18:17:26.439Z,87.08
2023-01-17T18:19:53.777Z,87.20
2023-01-17T18:22:21.247Z,87.57
2023-01-17T18:24:48.597Z,87.41
2023-01-17T18:27:15.896Z,87.05
2023-01-17T18:29:43.255Z,87.35
2023-01-17T18:32:10.601Z,87.77
2023-01-17T18:34:41.588Z,87.38
2023-01-17T18:37:09.036Z,87.41
2023-01-17T18:39:36.408Z,87.31
2023-01-17T18:42:03.859Z,87.48
2023-01-17T18:44:31.209Z,87.56
2023-01-17T18:47:02.161Z,87.37
2023-01-17T18:49:29.647Z,88.01
2023-01-17T18:51:56.966Z,87.85
2023-01-17T18:54:24.280Z,87.91
2023-01-17T18:56:51.533Z,87.65
2023-01-17T18:59:19.058Z,87.78
2023-01-17T19:01:46.577Z,87.62
2023-01-17T19:04:14.577Z,87.70
2023-01-17T19:06:43.571Z,87.57
2023-01-17T19:09:11.679Z,87.69
2023-01-17T19:11:39.211Z,87.81
2023-01-17T19:14:06.858Z,87.96
2023-01-17T19:16:36.491Z,87.98
2023-01-17T19:19:05.493Z,87.87
2023-01-17T19:21:32.859Z,87.77
2023-01-17T19:24:00.271Z,88.11
2023-01-17T19:26:27.808Z,88.09
2023-01-17T19:28:56.363Z,87.97
2023-01-17T19:31:27.884Z,87.87
2023-01-17T19:33:57.584Z,87.61
2023-01-17T19:36:29.256Z,87.20
2023-01-17T19:39:04.912Z,87.62
2023-01-17T19:41:33.375Z,87.70
2023-01-17T19:44:02.171Z,87.82
2023-01-17T19:46:29.755Z,87.73
2023-01-17T19:48:57.218Z,87.46
2023-01-17T19:51:24.916Z,87.44
2023-01-17T19:53:53.664Z,87.13
2023-01-17T19:56:25.335Z,87.51
2023-01-17T19:58:52.695Z,87.68
2023-01-17T20:01:25.314Z,87.46
2023-01-17T20:03:52.986Z,87.62
2023-01-17T20:06:24.331Z,87.63
2023-01-17T20:08:51.612Z,87.54
2023-01-17T20:11:20.549Z,87.27
2023-01-17T20:13:48.687Z,87.36
2023-01-17T20:16:16.397Z,87.43
2023-01-17T20:18:43.974Z,87.74
2023-01-17T20:21:17.314Z,87.81
2023-01-17T20:23:47.067Z,87.64
2023-01-17T20:26:15.331Z,87.51
2023-01-17T20:28:43.527Z,87.48
2023-01-17T20:31:21.446Z,87.51
2023-01-17T20:33:50.528Z,87.80
2023-01-17T20:36:18.821Z,87.92
2023-01-17T20:38:46.387Z,87.81
2023-01-17T20:41:24.806Z,87.80
2023-01-17T20:43:53.621Z,87.74
2023-01-17T20:46:22.002Z,87.61
2023-01-17T20:48:51.190Z,87.87
2023-01-17T20:51:18.715Z,87.82
2023-01-17T20:53:46.880Z,88.16
2023-01-17T20:56:15.492Z,88.20
2023-01-17T20:58:42.894Z,88.42
2023-01-17T21:01:11.250Z,88.12
2023-01-17T21:03:39.188Z,88.40
2023-01-17T21:06:10.613Z,88.24
2023-01-17T21:08:38.949Z,88.25
2023-01-17T21:11:06.541Z,88.42
2023-01-17T21:13:33.961Z,88.52
2023-01-17T21:16:01.297Z,88.38
2023-01-17T21:18:31.726Z,88.22
2023-01-17T21:21:10.033Z,88.01
2023-01-17T21:23:37.999Z,87.63
2023-01-17T21:26:06.036Z,87.87
2023-01-17T21:28:35.408Z,88.22
2023-01-17T21:31:18.161Z,88.27
2023-01-17T21:33:45.619Z,87.81
2023-01-17T21:36:13.272Z,87.87
2023-01-17T21:38:40.630Z,87.94
2023-01-17T21:41:07.932Z,88.37
2023-01-17T21:43:35.296Z,88.07
2023-01-17T21:46:03.430Z,87.76
2023-01-17T21:48:31.044Z,87.73
2023-01-17T21:51:07.980Z,87.51
2023-01-17T21:53:39.290Z,87.24
2023-01-17T21:56:26.599Z,87.10
2023-01-17T21:58:55.470Z,87.02
2023-01-17T22:01:27.220Z,87.38
2023-01-17T22:03:54.630Z,87.75
2023-01-17T22:06:22.722Z,87.82
2023-01-17T22:08:50.053Z,87.50
2023-01-17T22:11:19.479Z,87.23
2023-01-17T22:13:47.361Z,87.07
2023-01-17T22:16:16.506Z,87.16
2023-01-17T22:18:44.335Z,87.23
2023-01-17T22:21:13.660Z,87.49
2023-01-17T22:23:47.765Z,87.27
2023-01-17T22:26:15.223Z,87.17
2023-01-17T22:28:42.736Z,86.90
2023-01-17T22:31:21.086Z,87.02
2023-01-17T22:33:52.550Z,87.43
2023-01-17T22:36:20.260Z,87.68
2023-01-17T22:38:47.547Z,87.31
2023-01-17T22:41:25.276Z,87.30
2023-01-17T22:43:53.536Z,87.40
2023-01-17T22:46:22.210Z,87.82
2023-01-17T22:48:49.633Z,88.03
2023-01-17T22:51:18.026Z,87.68
2023-01-17T22:53:47.401Z,87.31
2023-01-17T22:56:16.812Z,87.22
2023-01-17T22:58:48.857Z,87.63
2023-01-17T23:01:21.046Z,87.98
2023-01-17T23:03:53.306Z,88.22
2023-01-17T23:06:31.634Z,87.93
2023-01-17T23:09:00.495Z,87.51
2023-01-17T23:11:42.703Z,87.24
2023-01-17T23:14:53.874Z,87.07
2023-01-17T23:17:40.671Z,87.11
2023-01-17T23:20:09.121Z,87.08
2023-01-17T23:22:36.493Z,87.07
2023-01-17T23:25:11.514Z,86.94
2023-01-17T23:27:59.041Z,86.98
2023-01-17T23:30:37.524Z,86.99
2023-01-17T23:33:09.498Z,87.06
2023-01-17T23:35:41.686Z,87.18
2023-01-17T23:38:33.748Z,87.39
2023-01-17T23:41:28.715Z,87.76
2023-01-17T23:43:57.919Z,87.82
2023-01-17T23:46:25.757Z,88.03
2023-01-17T23:48:53.134Z,87.93
2023-01-17T23:51:20.381Z,88.05
2023-01-17T23:53:47.757Z,87.67
2023-01-17T23:56:21.011Z,87.26
2023-01-17T23:58:48.354Z,87.56
